CST,Max TemperatureF,Mean TemperatureF,Min TemperatureF,Max Dew PointF,MeanDew PointF,Min DewpointF,Max Humidity, Mean Humidity, Min Humidity, Max Sea Level PressureIn, Mean Sea Level PressureIn, Min Sea Level PressureIn, Max VisibilityMiles, Mean VisibilityMiles, Min VisibilityMiles, Max Wind SpeedMPH, Mean Wind SpeedMPH, Max Gust SpeedMPH,PrecipitationIn, CloudCover, Events, WindDirDegrees
2012-11-1,63,48,35,39,29,22,83,58,27,30.02,29.95,29.88,10,10,10,12,5,,0.00,2,,273
2012-11-2,58,48,39,39,33,25,75,57,29,30.09,30.01,29.91,10,10,10,9,5,,0.00,2,,23
2012-11-3,53,46,39,39,34,31,88,64,47,30.21,30.09,30.03,10,10,7,15,8,20,0.00,4,,64
2012-11-4,53,43,33,36,34,32,94,79,47,30.27,30.21,30.17,10,8,5,8,2,,0.00,3,,49
2012-11-5,46,44,42,43,38,36,87,80,71,30.17,30.12,30.09,10,7,2,15,5,,0.00,8,Rain,96
2012-11-6,50,46,42,45,41,39,88,84,66,30.09,30.01,29.93,10,6,2,14,3,,0.00,8,Rain,245
2012-11-7,50,42,34,43,38,32,91,81,62,30.19,30.06,29.93,10,9,5,14,7,16,0.00,6,,311
2012-11-8,57,44,30,40,34,28,96,82,48,30.24,30.17,30.08,10,7,0,15,2,,0.00,0,Fog,156
2012-11-9,71,56,41,54,45,37,85,71,46,30.09,30.03,29.93,10,10,10,17,8,23,0.00,2,,150
2012-11-10,78,68,59,50,46,37,64,50,23,30.00,29.97,29.92,10,10,10,18,12,28,0.00,1,,166
2012-11-11,69,56,42,59,49,40,94,71,50,30.09,29.95,29.75,10,8,3,25,14,34,0.17,4,Rain,205
2012-11-12,46,39,32,39,26,18,89,65,32,30.44,30.30,30.09,10,10,7,18,13,25,0.14,2,Rain,271
2012-11-13,50,40,30,30,26,16,88,68,26,30.54,30.48,30.44,10,10,10,9,3,,0.00,0,,191
2012-11-14,48,39,30,32,29,23,92,82,37,30.51,30.45,30.37,10,10,7,6,1,,0.00,1,,101
2012-11-15,53,41,29,34,30,23,93,82,30,30.41,30.37,30.34,10,9,7,4,0,,0.00,1,,-1
2012-11-16,59,46,32,36,31,27,95,77,29,30.47,30.43,30.39,10,8,5,7,1,,0.00,0,,92
2012-11-17,57,44,31,36,32,29,92,80,36,30.50,30.45,30.41,10,8,5,9,1,,0.00,1,,96
2012-11-18,62,47,32,39,33,28,94,75,29,30.41,30.35,30.07,10,8,4,9,3,,0.00,1,,114
2012-11-19,59,49,39,41,37,34,82,67,48,30.31,30.22,30.13,10,10,10,12,4,,0.00,3,,143
2012-11-20,62,50,39,50,46,37,93,78,63,30.21,30.14,30.08,10,8,0,9,3,,0.00,4,Fog,298
2012-11-21,53,48,42,52,45,40,94,92,82,30.29,30.22,30.15,7,2,0,6,3,,0.00,5,Fog,189
2012-11-22,69,54,40,54,45,39,93,81,33,30.15,30.07,29.94,10,6,0,17,8,28,0.05,5,Fog-Rain,170
2012-11-23,56,44,31,42,29,17,87,61,34,30.35,30.23,30.09,10,10,10,28,12,28,0.05,1,,294
2012-11-24,37,31,25,25,20,17,77,63,45,30.35,30.21,30.03,10,10,10,12,7,,0.00,2,,235
2012-11-25,55,44,34,31,26,23,76,57,29,30.07,30.00,29.92,10,10,10,12,7,17,0.00,1,,187
2012-11-26,44,38,32,30,26,18,78,64,39,30.39,30.21,30.06,10,10,10,21,5,,0.00,4,,3
2012-11-27,41,32,24,23,20,18,80,65,39,30.46,30.38,30.33,10,10,10,8,4,,0.00,0,,316
2012-11-28,50,38,26,28,24,21,88,73,35,30.45,30.36,30.31,10,9,7,9,1,,0.00,0,,143
2012-11-29,60,46,32,34,29,27,87,66,29,30.31,30.23,30.10,10,10,10,15,7,,0.00,2,,152
2012-11-30,66,54,42,42,34,28,72,58,34,30.13,30.11,30.06,10,10,10,12,9,,0.00,1,,173